createdAt,value
2018-08-30T00:02:23.161Z,99734.23
2018-08-30T00:04:51.863Z,99733.23
2018-08-30T00:07:20.462Z,99739.67
2018-08-30T00:09:49.285Z,99732.84
2018-08-30T00:12:18.001Z,99727.06
2018-08-30T00:14:46.686Z,99726.26
2018-08-30T00:17:16.039Z,99724.37
2018-08-30T00:19:44.686Z,99720.19
2018-08-30T00:22:13.405Z,99723.94
2018-08-30T00:24:42.107Z,99717.20
2018-08-30T00:27:10.681Z,99717.02
2018-08-30T00:29:39.359Z,99717.97
2018-08-30T00:32:08.050Z,99717.97
2018-08-30T00:34:36.654Z,99712.84
2018-08-30T00:37:05.238Z,99716.55
2018-08-30T00:39:33.899Z,99725.63
2018-08-30T00:42:02.534Z,99720.45
2018-08-30T00:44:31.177Z,99717.22
2018-08-30T00:46:59.907Z,99713.80
2018-08-30T00:49:29.161Z,99718.27
2018-08-30T00:51:57.978Z,99712.84
2018-08-30T00:54:26.653Z,99704.86
2018-08-30T00:56:55.267Z,99701.09
2018-08-30T00:59:23.880Z,99697.30
2018-08-30T01:01:53.782Z,99692.55
2018-08-30T01:04:22.433Z,99694.83
2018-08-30T01:06:51.145Z,99686.66
2018-08-30T01:09:19.817Z,99700.55
2018-08-30T01:11:51.361Z,99692.18
2018-08-30T01:14:20.525Z,99704.35
2018-08-30T01:16:49.254Z,99693.70
2018-08-30T01:19:18.094Z,99699.54
2018-08-30T01:21:46.789Z,99690.99
2018-08-30T01:24:16.260Z,99687.95
2018-08-30T01:26:45.545Z,99685.30
2018-08-30T01:29:14.389Z,99689.58
2018-08-30T01:31:43.093Z,99683.34
2018-08-30T01:34:13.132Z,99677.83
2018-08-30T01:36:43.393Z,99674.89
2018-08-30T01:39:12.419Z,99670.14
2018-08-30T01:41:42.501Z,99672.89
2018-08-30T01:44:11.922Z,99671.28
2018-08-30T01:46:40.611Z,99673.37
2018-08-30T01:49:09.300Z,99673.27
2018-08-30T01:51:38.051Z,99667.58
2018-08-30T01:54:07.124Z,99660.45
2018-08-30T01:56:36.004Z,99666.34
2018-08-30T01:59:04.815Z,99664.16
2018-08-30T02:01:33.423Z,99659.31
2018-08-30T02:04:02.592Z,99659.88
2018-08-30T02:06:31.209Z,99662.55
2018-08-30T02:08:59.978Z,99659.03
2018-08-30T02:11:28.967Z,99653.94
2018-08-30T02:13:57.638Z,99656.59
2018-08-30T02:16:26.673Z,99655.84
2018-08-30T02:18:55.346Z,99657.55
2018-08-30T02:21:25.081Z,99656.98
2018-08-30T02:23:53.738Z,99659.06
2018-08-30T02:26:22.424Z,99646.72
2018-08-30T02:28:51.107Z,99656.73
2018-08-30T02:31:19.804Z,99659.64
2018-08-30T02:33:53.080Z,99656.31
2018-08-30T02:36:21.962Z,99649.76
2018-08-30T02:38:50.729Z,99650.61
2018-08-30T02:41:19.425Z,99655.64
2018-08-30T02:43:48.329Z,99653.78
2018-08-30T02:46:17.061Z,99648.65
2018-08-30T02:48:45.684Z,99652.73
2018-08-30T02:51:14.281Z,99648.45
2018-08-30T02:53:43.205Z,99652.25
2018-08-30T02:56:11.868Z,99642.97
2018-08-30T02:58:43.333Z,99647.33
2018-08-30T03:01:12.450Z,99647.80
2018-08-30T03:03:41.813Z,99653.01
2018-08-30T03:06:10.502Z,99646.00
2018-08-30T03:08:39.278Z,99641.05
2018-08-30T03:11:09.036Z,99637.85
2018-08-30T03:13:38.386Z,99637.66
2018-08-30T03:16:07.177Z,99635.47
2018-08-30T03:18:35.864Z,99630.72
2018-08-30T03:21:04.554Z,99630.43
2018-08-30T03:23:33.304Z,99628.42
2018-08-30T03:26:02.091Z,99624.16
2018-08-30T03:28:30.984Z,99624.62
2018-08-30T03:30:59.849Z,99631.73
2018-08-30T03:33:28.537Z,99634.60
2018-08-30T03:35:57.292Z,99633.36
2018-08-30T03:38:26.115Z,99634.41
2018-08-30T03:40:55.549Z,99629.27
2018-08-30T03:43:24.208Z,99628.03
2018-08-30T03:45:52.908Z,99627.27
2018-08-30T03:48:21.613Z,99618.92
2018-08-30T03:50:50.238Z,99624.70
2018-08-30T03:53:19.465Z,99620.72
2018-08-30T03:55:48.141Z,99626.12
2018-08-30T03:58:16.955Z,99624.79
2018-08-30T04:00:45.663Z,99617.80
2018-08-30T04:03:14.350Z,99616.95
2018-08-30T04:05:43.217Z,99619.22
2018-08-30T04:08:11.882Z,99615.23
2018-08-30T04:10:40.728Z,99622.26
2018-08-30T04:13:09.413Z,99622.99
2018-08-30T04:15:38.142Z,99618.06
2018-08-30T04:18:08.484Z,99619.69
2018-08-30T04:20:37.170Z,99616.09
2018-08-30T04:23:06.187Z,99617.23
2018-08-30T04:25:35.622Z,99613.63
2018-08-30T04:28:04.241Z,99615.25
2018-08-30T04:30:32.909Z,99618.67
2018-08-30T04:33:01.544Z,99609.67
2018-08-30T04:35:30.184Z,99608.12
2018-08-30T04:37:58.890Z,99611.08
2018-08-30T04:40:27.906Z,99615.08
2018-08-30T04:42:56.609Z,99608.64
2018-08-30T04:45:25.203Z,99610.89
2018-08-30T04:47:53.951Z,99617.55
2018-08-30T04:50:22.685Z,99605.75
2018-08-30T04:52:51.639Z,99614.30
2018-08-30T04:55:20.865Z,99604.16
2018-08-30T04:57:49.447Z,99607.64
2018-08-30T05:00:18.124Z,99612.58
2018-08-30T05:02:46.753Z,99604.79
2018-08-30T05:05:15.422Z,99598.30
2018-08-30T05:07:45.065Z,99600.58
2018-08-30T05:10:13.793Z,99597.91
2018-08-30T05:12:43.438Z,99596.20
2018-08-30T05:15:12.707Z,99596.20
2018-08-30T05:17:41.946Z,99588.93
2018-08-30T05:20:10.729Z,99580.73
2018-08-30T05:22:39.341Z,99579.73
2018-08-30T05:25:08.114Z,99581.70
2018-08-30T05:27:36.706Z,99580.49
2018-08-30T05:30:05.410Z,99581.08
2018-08-30T05:32:34.011Z,99578.33
2018-08-30T05:35:02.697Z,99586.83
2018-08-30T05:37:33.384Z,99579.79
2018-08-30T05:40:02.116Z,99580.77
2018-08-30T05:42:30.911Z,99587.17
2018-08-30T05:45:00.589Z,99590.03
2018-08-30T05:47:31.429Z,99595.20
2018-08-30T05:50:00.120Z,99587.88
2018-08-30T05:52:28.821Z,99590.48
2018-08-30T05:54:57.541Z,99584.48
2018-08-30T05:57:26.211Z,99585.16
2018-08-30T05:59:54.897Z,99571.52
2018-08-30T06:02:23.570Z,99574.34
2018-08-30T06:04:52.566Z,99572.95
2018-08-30T06:07:21.347Z,99580.52
2018-08-30T06:09:50.763Z,99570.50
2018-08-30T06:12:19.442Z,99572.98
2018-08-30T06:14:48.049Z,99571.20
2018-08-30T06:17:16.656Z,99570.27
2018-08-30T06:19:45.435Z,99567.77
2018-08-30T06:22:14.047Z,99570.20
2018-08-30T06:24:42.625Z,99569.73
2018-08-30T06:27:11.235Z,99563.47
2018-08-30T06:29:39.974Z,99566.15
2018-08-30T06:32:08.709Z,99566.67
2018-08-30T06:34:37.391Z,99568.38
2018-08-30T06:37:06.529Z,99565.23
2018-08-30T06:39:35.380Z,99570.81
2018-08-30T06:42:04.159Z,99576.50
2018-08-30T06:44:32.845Z,99566.66
2018-08-30T06:47:01.667Z,99564.43
2018-08-30T06:49:30.309Z,99568.69
2018-08-30T06:51:59.039Z,99570.38
2018-08-30T06:54:27.694Z,99567.91
2018-08-30T06:56:56.437Z,99566.92
2018-08-30T06:59:25.157Z,99565.69
2018-08-30T07:01:54.009Z,99565.87
2018-08-30T07:04:23.004Z,99557.77
2018-08-30T07:06:51.665Z,99559.56
2018-08-30T07:09:20.545Z,99556.70
2018-08-30T07:11:49.196Z,99557.35
2018-08-30T07:14:18.013Z,99556.81
2018-08-30T07:16:47.657Z,99548.94
2018-08-30T07:19:16.366Z,99544.92
2018-08-30T07:21:45.034Z,99549.30
2018-08-30T07:24:13.812Z,99546.10
2018-08-30T07:26:43.716Z,99545.72
2018-08-30T07:29:12.503Z,99540.80
2018-08-30T07:31:41.233Z,99541.72
2018-08-30T07:34:10.154Z,99542.59
2018-08-30T07:36:38.897Z,99542.67
2018-08-30T07:39:10.661Z,99539.55
2018-08-30T07:41:40.002Z,99543.78
2018-08-30T07:44:09.365Z,99539.89
2018-08-30T07:46:38.210Z,99532.16
2018-08-30T07:49:07.681Z,99534.66
2018-08-30T07:51:36.297Z,99532.01
2018-08-30T07:54:05.311Z,99537.14
2018-08-30T07:56:33.912Z,99537.72
2018-08-30T07:59:02.630Z,99529.48
2018-08-30T08:01:31.498Z,99531.18
2018-08-30T08:04:02.680Z,99532.91
2018-08-30T08:06:31.821Z,99531.33
2018-08-30T08:09:00.481Z,99540.08
2018-08-30T08:11:29.374Z,99534.69
2018-08-30T08:13:58.006Z,99525.45
2018-08-30T08:16:28.102Z,99525.62
2018-08-30T08:18:57.048Z,99522.08
2018-08-30T08:21:25.820Z,99527.62
2018-08-30T08:23:54.590Z,99523.09
2018-08-30T08:26:23.612Z,99524.88
2018-08-30T08:28:52.475Z,99525.97
2018-08-30T08:31:21.158Z,99528.39
2018-08-30T08:34:50.286Z,99529.43
2018-08-30T08:37:18.957Z,99531.98
2018-08-30T08:39:48.553Z,99534.43
2018-08-30T08:42:18.149Z,99528.28
2018-08-30T08:44:46.738Z,99544.16
2018-08-30T08:47:15.738Z,99548.96
2018-08-30T08:49:44.549Z,99545.76
2018-08-30T08:52:13.224Z,99541.55
2018-08-30T08:54:41.833Z,99546.30
2018-08-30T08:57:10.422Z,99541.95
2018-08-30T08:59:39.197Z,99532.89
2018-08-30T09:02:08.313Z,99535.30
2018-08-30T09:04:37.106Z,99537.66
2018-08-30T09:07:06.444Z,99543.47
2018-08-30T09:09:36.275Z,99544.02
2018-08-30T09:12:04.969Z,99538.64
2018-08-30T09:14:33.707Z,99538.48
2018-08-30T09:17:02.263Z,99528.73
2018-08-30T09:19:30.976Z,99536.66
2018-08-30T09:21:59.806Z,99534.64
2018-08-30T09:24:28.554Z,99538.88
2018-08-30T09:26:57.338Z,99536.32
2018-08-30T09:29:25.830Z,99542.25
2018-08-30T09:31:54.521Z,99535.01
2018-08-30T09:34:23.432Z,99539.25
2018-08-30T09:36:52.287Z,99536.70
2018-08-30T09:39:22.101Z,99532.48
2018-08-30T09:41:50.754Z,99530.44
2018-08-30T09:44:19.493Z,99531.61
2018-08-30T09:46:48.226Z,99527.55
2018-08-30T09:49:17.000Z,99532.42
2018-08-30T09:51:46.115Z,99536.17
2018-08-30T09:54:14.989Z,99529.20
2018-08-30T09:56:43.693Z,99530.39
2018-08-30T09:59:12.384Z,99521.92
2018-08-30T10:01:48.090Z,99523.94
2018-08-30T10:04:19.964Z,99529.83
2018-08-30T10:06:49.313Z,99526.16
2018-08-30T10:09:18.777Z,99522.59
2018-08-30T10:11:48.574Z,99521.92
2018-08-30T10:14:17.683Z,99523.95
2018-08-30T10:16:46.429Z,99519.89
2018-08-30T10:19:15.653Z,99513.58
2018-08-30T10:21:44.638Z,99520.79
2018-08-30T10:24:14.127Z,99517.39
2018-08-30T10:26:42.976Z,99523.42
2018-08-30T10:29:11.667Z,99522.71
2018-08-30T10:31:40.556Z,99517.61
2018-08-30T10:34:09.211Z,99510.09
2018-08-30T10:36:37.998Z,99508.97
2018-08-30T10:39:08.315Z,99504.36
2018-08-30T10:41:37.793Z,99511.06
2018-08-30T10:44:06.722Z,99510.59
2018-08-30T10:46:35.686Z,99502.35
2018-08-30T10:49:04.481Z,99502.25
2018-08-30T10:51:34.214Z,99503.02
2018-08-30T10:54:02.995Z,99513.45
2018-08-30T10:56:32.799Z,99509.01
2018-08-30T10:59:01.662Z,99506.67
2018-08-30T11:01:30.397Z,99505.16
2018-08-30T11:03:59.421Z,99492.54
2018-08-30T11:06:29.265Z,99495.70
2018-08-30T11:08:58.133Z,99503.32
2018-08-30T11:11:26.934Z,99499.80
2018-08-30T11:13:55.661Z,99495.17
2018-08-30T11:16:24.405Z,99499.05
2018-08-30T11:18:53.107Z,99503.55
2018-08-30T11:21:21.952Z,99496.19
2018-08-30T11:23:50.707Z,99497.84
2018-08-30T11:26:19.554Z,99499.80
2018-08-30T11:28:48.325Z,99508.90
2018-08-30T11:31:16.933Z,99498.55
2018-08-30T11:33:45.829Z,99502.59
2018-08-30T11:36:14.541Z,99505.64
2018-08-30T11:38:43.290Z,99506.37
2018-08-30T11:41:12.166Z,99496.00
2018-08-30T11:43:41.702Z,99498.11
2018-08-30T11:46:10.506Z,99508.59
2018-08-30T11:48:39.296Z,99506.09
2018-08-30T11:51:08.074Z,99497.27
2018-08-30T11:53:36.704Z,99493.88
2018-08-30T11:56:05.970Z,99494.83
2018-08-30T11:58:34.748Z,99485.66
2018-08-30T12:01:03.464Z,99488.14
2018-08-30T12:03:32.663Z,99487.99
2018-08-30T12:06:02.600Z,99491.33
2018-08-30T12:08:31.457Z,99489.08
2018-08-30T12:11:00.551Z,99492.34
2018-08-30T12:13:30.098Z,99495.13
2018-08-30T12:15:58.770Z,99497.06
2018-08-30T12:18:27.355Z,99495.38
2018-08-30T12:20:56.134Z,99498.77
2018-08-30T12:23:26.999Z,99501.67
2018-08-30T12:25:55.665Z,99497.95
2018-08-30T12:28:24.456Z,99498.81
2018-08-30T12:30:53.178Z,99499.10
2018-08-30T12:33:21.850Z,99501.33
2018-08-30T12:35:51.590Z,99499.72
2018-08-30T12:38:20.734Z,99501.41
2018-08-30T12:40:49.627Z,99505.26
2018-08-30T12:43:18.220Z,99502.27
2018-08-30T12:45:46.818Z,99510.30
2018-08-30T12:48:15.531Z,99497.76
2018-08-30T12:50:44.579Z,99502.95
2018-08-30T12:53:13.308Z,99510.64
2018-08-30T12:55:42.945Z,99508.48
2018-08-30T12:58:12.628Z,99500.52
2018-08-30T13:00:41.171Z,99505.89
2018-08-30T13:03:09.968Z,99505.97
2018-08-30T13:05:38.834Z,99511.28
2018-08-30T13:08:07.568Z,99510.03
2018-08-30T13:10:36.529Z,99510.88
2018-08-30T13:13:05.216Z,99508.66
2018-08-30T13:15:33.858Z,99510.81
2018-08-30T13:18:02.501Z,99516.97
2018-08-30T13:20:31.876Z,99516.09
2018-08-30T13:23:00.888Z,99516.31
2018-08-30T13:25:29.694Z,99525.16
2018-08-30T13:27:58.475Z,99535.48
2018-08-30T13:30:27.437Z,99549.66
2018-08-30T13:32:56.060Z,99558.87
2018-08-30T13:35:24.861Z,99569.91
2018-08-30T13:37:53.678Z,99572.89
2018-08-30T13:40:22.499Z,99583.89
2018-08-30T13:42:51.258Z,99569.83
2018-08-30T13:45:20.457Z,99574.70
2018-08-30T13:47:50.166Z,99574.25
2018-08-30T13:50:18.929Z,99576.05
2018-08-30T13:52:47.807Z,99572.76
2018-08-30T13:55:16.359Z,99590.05
2018-08-30T13:57:45.307Z,99589.59
2018-08-30T14:00:14.119Z,99613.22
2018-08-30T14:02:42.619Z,99599.42
2018-08-30T14:05:13.660Z,99619.59
2018-08-30T14:07:42.357Z,99623.84
2018-08-30T14:10:10.895Z,99629.75
2018-08-30T14:12:39.604Z,99624.58
2018-08-30T14:15:08.516Z,99629.19
2018-08-30T14:17:36.806Z,99625.13
2018-08-30T14:20:07.043Z,99625.91
2018-08-30T14:22:36.703Z,99628.30
2018-08-30T14:25:05.681Z,99614.34
2018-08-30T14:27:34.753Z,99619.58
2018-08-30T14:30:03.592Z,99620.92
2018-08-30T14:32:32.339Z,99621.22
2018-08-30T14:35:01.109Z,99626.90
2018-08-30T14:37:30.039Z,99622.09
2018-08-30T14:39:59.391Z,99623.06
2018-08-30T14:42:28.085Z,99633.98
2018-08-30T14:44:56.801Z,99655.61
2018-08-30T14:47:26.346Z,99666.25
2018-08-30T14:49:55.125Z,99684.36
2018-08-30T14:52:24.606Z,99692.09
2018-08-30T14:54:53.333Z,99694.10
2018-08-30T14:57:22.166Z,99707.16
2018-08-30T14:59:51.157Z,99708.01
2018-08-30T15:02:20.082Z,99721.42
2018-08-30T15:04:48.705Z,99719.05
2018-08-30T15:07:18.485Z,99719.16
2018-08-30T15:09:48.398Z,99732.13
2018-08-30T15:12:17.712Z,99726.53
2018-08-30T15:14:47.599Z,99724.70
2018-08-30T15:17:16.697Z,99734.09
2018-08-30T15:19:48.010Z,99732.39
2018-08-30T15:22:16.676Z,99734.45
2018-08-30T15:24:45.366Z,99737.86
2018-08-30T15:27:14.153Z,99741.27
2018-08-30T15:29:42.752Z,99745.66
2018-08-30T15:32:11.476Z,99759.80
2018-08-30T15:34:40.178Z,99764.16
2018-08-30T15:37:09.118Z,99782.72
2018-08-30T15:39:37.964Z,99774.83
2018-08-30T15:42:06.728Z,99776.53
2018-08-30T15:44:35.422Z,99770.44
2018-08-30T15:47:04.225Z,99775.09
2018-08-30T15:49:32.950Z,99776.98
2018-08-30T15:52:01.654Z,99783.11
2018-08-30T15:54:31.063Z,99776.58
2018-08-30T15:57:00.458Z,99778.08
2018-08-30T15:59:29.354Z,99777.97
2018-08-30T16:01:58.665Z,99791.58
2018-08-30T16:04:28.342Z,99787.93
2018-08-30T16:06:56.962Z,99795.52
2018-08-30T16:09:25.670Z,99792.27
2018-08-30T16:11:54.429Z,99798.24
2018-08-30T16:14:23.115Z,99798.73
2018-08-30T16:16:51.928Z,99797.52
2018-08-30T16:19:20.570Z,99796.54
2018-08-30T16:21:49.291Z,99788.40
2018-08-30T16:24:18.033Z,99789.67
2018-08-30T16:26:46.825Z,99789.86
2018-08-30T16:29:16.165Z,99797.91
2018-08-30T16:31:45.356Z,99798.38
2018-08-30T16:34:14.154Z,99800.60
2018-08-30T16:36:42.835Z,99806.34
2018-08-30T16:39:12.284Z,99812.83
2018-08-30T16:41:41.215Z,99816.11
2018-08-30T16:44:10.418Z,99816.75
2018-08-30T16:46:40.648Z,99816.27
2018-08-30T16:49:09.387Z,99809.55
2018-08-30T16:51:38.022Z,99815.64
2018-08-30T16:54:06.832Z,99819.81
2018-08-30T16:56:35.750Z,99818.95
2018-08-30T16:59:04.541Z,99823.95
2018-08-30T17:01:33.102Z,99831.62
2018-08-30T17:04:02.676Z,99818.83
2018-08-30T17:06:31.329Z,99827.47
2018-08-30T17:08:59.984Z,99823.57
2018-08-30T17:11:28.768Z,99821.13
2018-08-30T17:13:58.378Z,99830.63
2018-08-30T17:16:28.300Z,99820.40
2018-08-30T17:19:02.401Z,99821.86
2018-08-30T17:21:32.023Z,99829.52
2018-08-30T17:24:01.233Z,99838.07
2018-08-30T17:26:30.023Z,99836.85
2018-08-30T17:28:58.877Z,99841.23
2018-08-30T17:31:27.608Z,99844.25
2018-08-30T17:33:56.518Z,99840.75
2018-08-30T17:36:25.384Z,99841.84
2018-08-30T17:38:54.161Z,99851.69
2018-08-30T17:41:22.877Z,99848.02
2018-08-30T17:43:51.545Z,99851.53
2018-08-30T17:46:21.498Z,99847.01
2018-08-30T17:48:51.382Z,99853.69
2018-08-30T17:51:19.997Z,99854.18
2018-08-30T17:53:49.112Z,99859.02
2018-08-30T17:56:17.893Z,99857.17
2018-08-30T17:58:46.892Z,99867.62
2018-08-30T18:01:15.715Z,99872.61
2018-08-30T18:03:44.459Z,99872.75
2018-08-30T18:06:13.167Z,99864.47
2018-08-30T18:08:41.941Z,99864.47
2018-08-30T18:11:11.650Z,99863.25
2018-08-30T18:13:40.353Z,99871.50
2018-08-30T18:16:09.054Z,99879.37
2018-08-30T18:18:37.806Z,99885.81
2018-08-30T18:21:06.409Z,99886.89
2018-08-30T18:23:35.111Z,99887.52
2018-08-30T18:26:03.750Z,99888.12
2018-08-30T18:28:32.495Z,99891.39
2018-08-30T18:31:01.403Z,99886.63
2018-08-30T18:33:30.121Z,99889.79
2018-08-30T18:35:59.596Z,99894.66
2018-08-30T18:38:28.418Z,99900.75
2018-08-30T18:40:57.426Z,99904.80
2018-08-30T18:43:27.929Z,99904.16
2018-08-30T18:45:56.821Z,99908.81
2018-08-30T18:48:25.909Z,99907.13
2018-08-30T18:50:54.847Z,99903.60
2018-08-30T18:53:23.704Z,99909.33
2018-08-30T18:55:52.478Z,99909.33
2018-08-30T18:58:21.743Z,99911.03
2018-08-30T19:00:50.593Z,99908.47
2018-08-30T19:03:19.395Z,99904.56
2018-08-30T19:05:48.388Z,99912.59
2018-08-30T19:08:17.735Z,99913.19
2018-08-30T19:10:46.435Z,99910.63
2018-08-30T19:13:15.506Z,99917.80
2018-08-30T19:15:50.519Z,99915.34
2018-08-30T19:18:24.530Z,99916.94
2018-08-30T19:20:53.223Z,99919.84
2018-08-30T19:23:22.282Z,99933.70
2018-08-30T19:25:51.419Z,99933.92
2018-08-30T19:28:20.726Z,99929.65
2018-08-30T19:30:49.607Z,99937.30
2018-08-30T19:33:18.478Z,99946.66
2018-08-30T19:35:52.926Z,99943.23
2018-08-30T19:38:21.891Z,99938.86
2018-08-30T19:40:56.767Z,99941.78
2018-08-30T19:43:25.491Z,99942.38
2018-08-30T19:45:56.027Z,99945.75
2018-08-30T19:48:24.770Z,99945.48
2018-08-30T19:50:53.701Z,99942.18
2018-08-30T19:53:24.334Z,99951.90
2018-08-30T19:55:53.015Z,99961.47
2018-08-30T19:58:21.901Z,99957.68
2018-08-30T20:00:50.783Z,99954.26
2018-08-30T20:03:19.578Z,99963.83
2018-08-30T20:05:48.937Z,99964.31
2018-08-30T20:08:17.694Z,99971.55
2018-08-30T20:10:46.434Z,99970.59
2018-08-30T20:13:15.233Z,99968.02
2018-08-30T20:15:43.956Z,99980.67
2018-08-30T20:18:12.938Z,99982.48
2018-08-30T20:20:42.526Z,99982.59
2018-08-30T20:23:11.415Z,99982.70
2018-08-30T20:25:40.521Z,99991.20
2018-08-30T20:28:09.333Z,99988.16
2018-08-30T20:30:39.169Z,99987.41
2018-08-30T20:33:09.945Z,99983.98
2018-08-30T20:35:40.445Z,99990.30
2018-08-30T20:38:09.210Z,99974.84
2018-08-30T20:40:37.913Z,99983.93
2018-08-30T20:43:07.610Z,99981.98
2018-08-30T20:45:36.218Z,99980.86
2018-08-30T20:48:04.920Z,99987.16
2018-08-30T20:50:33.610Z,99980.70
2018-08-30T20:53:02.378Z,99979.36
2018-08-30T20:55:31.150Z,99976.42
2018-08-30T20:57:59.952Z,99977.38
2018-08-30T21:00:29.592Z,99973.10
2018-08-30T21:02:58.306Z,99975.88
2018-08-30T21:05:27.308Z,99969.92
2018-08-30T21:07:56.030Z,99969.28
2018-08-30T21:10:24.673Z,99975.20
2018-08-30T21:12:53.469Z,99981.03
2018-08-30T21:15:22.298Z,99976.86
2018-08-30T21:17:50.961Z,99979.15
2018-08-30T21:20:19.766Z,99981.44
2018-08-30T21:22:48.505Z,99985.08
2018-08-30T21:25:17.112Z,99987.88
2018-08-30T21:27:46.080Z,99996.85
2018-08-30T21:30:14.610Z,99995.24
2018-08-30T21:32:43.405Z,100003.36
2018-08-30T21:35:12.062Z,100002.50
2018-08-30T21:37:40.795Z,100008.80
2018-08-30T21:40:10.545Z,100012.53
2018-08-30T21:42:40.557Z,100014.45
2018-08-30T21:45:09.326Z,100026.30
2018-08-30T21:47:38.153Z,100025.67
2018-08-30T21:50:07.124Z,100027.20
2018-08-30T21:52:36.850Z,100029.70
2018-08-30T21:55:06.674Z,100027.23
2018-08-30T21:57:36.534Z,100022.71
2018-08-30T22:00:06.277Z,100027.88
2018-08-30T22:02:35.051Z,100022.73
2018-08-30T22:05:03.756Z,100027.10
2018-08-30T22:07:33.825Z,100025.62
2018-08-30T22:10:02.603Z,100022.98
2018-08-30T22:12:31.286Z,100032.12
2018-08-30T22:14:59.974Z,100028.55
2018-08-30T22:17:28.779Z,100039.42
2018-08-30T22:19:57.358Z,100032.57
2018-08-30T22:22:26.109Z,100034.09
2018-08-30T22:24:54.941Z,100034.95
2018-08-30T22:27:23.811Z,100030.67
2018-08-30T22:29:52.570Z,100038.67
2018-08-30T22:32:21.162Z,100041.72
2018-08-30T22:34:49.966Z,100041.34
2018-08-30T22:37:19.527Z,100041.44
2018-08-30T22:39:48.250Z,100047.63
2018-08-30T22:42:17.021Z,100049.34
2018-08-30T22:44:45.696Z,100048.02
2018-08-30T22:47:14.401Z,100048.48
2018-08-30T22:49:44.139Z,100052.97
2018-08-30T22:52:12.826Z,100057.95
2018-08-30T22:54:41.859Z,100051.48
2018-08-30T22:57:10.615Z,100051.09
2018-08-30T22:59:39.269Z,100049.00
2018-08-30T23:02:08.125Z,100046.05
2018-08-30T23:04:39.052Z,100049.39
2018-08-30T23:07:07.747Z,100044.16
2018-08-30T23:09:36.379Z,100048.25
2018-08-30T23:12:05.326Z,100049.20
2018-08-30T23:14:35.017Z,100044.85
2018-08-30T23:17:04.544Z,100048.09
2018-08-30T23:19:33.766Z,100046.47
2018-08-30T23:22:02.675Z,100049.23
2018-08-30T23:24:31.358Z,100050.66
2018-08-30T23:27:00.429Z,100043.52
2018-08-30T23:29:29.181Z,100039.91
2018-08-30T23:31:57.925Z,100044.37
2018-08-30T23:34:26.811Z,100053.80
2018-08-30T23:36:55.562Z,100040.77
2018-08-30T23:39:24.300Z,100042.80
2018-08-30T23:41:53.200Z,100049.17
2018-08-30T23:44:21.933Z,100047.64
2018-08-30T23:46:50.637Z,100050.50
2018-08-30T23:49:19.468Z,100043.93
2018-08-30T23:51:48.362Z,100051.73
2018-08-30T23:54:17.096Z,100049.47
2018-08-30T23:56:45.951Z,100054.22
2018-08-30T23:59:26.546Z,100050.03
